Time;durP1;ratioP1;P1;durP2;ratioP2;P2;SDS_P1;SDS_P2;PMS_P1;PMS_P2;Temp;Humidity;BMP_temperature;BMP_pressure;BME280_temperature;BME280_humidity;BME280_pressure;Samples;Min_cycle;Max_cycle;Signal;HPM_P1;HPM_P2
2022/05/25 00:02:13;;;;;;;9.13;4.33;;;;;;;11.85;58.58;100250.94;1663968;86;20995;-59
2022/05/25 00:04:41;;;;;;;7.65;4.25;;;;;;;11.82;58.54;100253.26;1664039;86;21028;-60
2022/05/25 00:07:11;;;;;;;8.30;4.25;;;;;;;11.80;58.69;100256.73;1664036;86;21004;-60
2022/05/25 00:09:42;;;;;;;9.68;4.55;;;;;;;11.78;59.01;100265.71;1663977;86;21020;-60
2022/05/25 00:12:13;;;;;;;8.35;4.28;;;;;;;11.74;59.28;100252.38;1664066;86;21530;-60
2022/05/25 00:14:43;;;;;;;9.70;4.35;;;;;;;11.72;59.47;100259.12;1605840;89;21016;-61
2022/05/25 00:17:12;;;;;;;10.38;4.55;;;;;;;11.69;59.66;100256.23;1605846;89;21404;-61
2022/05/25 00:19:59;;;;;;;8.55;4.67;;;;;;;11.68;59.82;100255.07;1605721;89;21076;-61
2022/05/25 00:22:41;;;;;;;9.05;4.60;;;;;;;11.67;59.80;100263.83;1605793;89;21027;-60
2022/05/25 00:25:17;;;;;;;9.10;4.78;;;;;;;11.67;59.66;100261.09;1606106;89;21068;-61
2022/05/25 00:27:45;;;;;;;14.20;4.55;;;;;;;11.61;59.55;100265.19;1605783;89;21210;-62
2022/05/25 00:30:14;;;;;;;10.30;5.03;;;;;;;11.57;59.76;100272.15;1605818;89;21040;-60
2022/05/25 00:32:43;;;;;;;7.42;4.65;;;;;;;11.54;59.94;100266.55;1631049;86;21034;-60
2022/05/25 00:35:15;;;;;;;8.60;4.67;;;;;;;11.52;60.21;100267.28;1664397;86;21422;-59
2022/05/25 00:37:43;;;;;;;9.30;5.03;;;;;;;11.51;60.39;100271.08;1669741;86;21009;-60
2022/05/25 00:40:17;;;;;;;7.40;4.67;;;;;;;11.52;60.47;100270.03;1669380;86;20993;-61
2022/05/25 00:42:47;;;;;;;10.98;4.60;;;;;;;11.55;60.32;100262.75;1669497;86;21511;-60
2022/05/25 00:45:15;;;;;;;11.53;5.03;;;;;;;11.52;60.35;100260.95;1669361;86;21416;-59
2022/05/25 00:47:47;;;;;;;11.08;4.70;;;;;;;11.46;60.54;100261.25;1669294;86;21032;-61
2022/05/25 00:50:20;;;;;;;11.38;5.10;;;;;;;11.42;60.73;100262.19;1669567;86;20983;-60
2022/05/25 00:52:50;;;;;;;9.25;4.70;;;;;;;11.42;60.83;100264.09;1669427;86;21028;-59
2022/05/25 00:55:28;;;;;;;10.70;4.80;;;;;;;11.38;60.98;100262.81;1669337;86;21418;-60
2022/05/25 00:57:59;;;;;;;11.40;5.25;;;;;;;11.34;61.16;100265.65;1643437;86;21045;-61
2022/05/25 01:00:29;;;;;;;10.15;5.35;;;;;;;11.32;61.53;100263.11;1669362;86;21020;-60
2022/05/25 01:03:04;;;;;;;12.45;5.28;;;;;;;11.33;61.72;100273.03;1669562;86;20993;-60
2022/05/25 01:05:43;;;;;;;8.75;5.00;;;;;;;11.33;61.83;100268.08;1669367;86;21009;-60
2022/05/25 01:08:39;;;;;;;13.28;5.53;;;;;;;11.33;61.84;100274.41;1669031;86;21073;-59
2022/05/25 01:11:22;;;;;;;8.73;4.60;;;;;;;11.31;62.07;100274.29;1669362;86;21032;-60
2022/05/25 01:14:02;;;;;;;11.63;5.22;;;;;;;11.33;62.21;100274.93;1669450;86;21008;-60
2022/05/25 01:17:08;;;;;;;10.28;4.87;;;;;;;11.35;62.12;100281.05;1645937;86;21053;-59
2022/05/25 01:20:23;;;;;;;8.48;4.78;;;;;;;11.31;62.29;100277.03;1669460;86;21037;-60
2022/05/25 01:23:21;;;;;;;9.63;5.00;;;;;;;11.29;62.71;100281.88;1669389;86;20989;-60
2022/05/25 01:26:25;;;;;;;8.28;4.80;;;;;;;11.31;62.74;100282.52;1669414;86;21029;-61
2022/05/25 01:29:14;;;;;;;12.07;5.20;;;;;;;11.36;62.62;100289.61;1669018;86;21112;-60
2022/05/25 01:31:55;;;;;;;9.65;5.15;;;;;;;11.39;62.45;100285.08;1669353;86;21021;-60
2022/05/25 01:34:47;;;;;;;10.80;5.03;;;;;;;11.39;62.45;100283.70;1669544;86;21000;-60
2022/05/25 01:37:40;;;;;;;14.78;5.15;;;;;;;11.37;62.58;100284.44;1659717;86;21053;-58
2022/05/25 01:40:19;;;;;;;11.78;5.20;;;;;;;11.40;62.63;100284.02;1657083;86;21006;-60
2022/05/25 01:42:56;;;;;;;13.55;5.30;;;;;;;11.41;62.67;100286.56;1657184;86;21032;-60
2022/05/25 01:45:25;;;;;;;10.30;5.60;;;;;;;11.46;62.61;100288.69;1657356;86;21010;-60
2022/05/25 01:47:54;;;;;;;11.90;5.87;;;;;;;11.44;62.69;100291.64;1657075;86;21466;-60
2022/05/25 01:50:27;;;;;;;11.45;5.78;;;;;;;11.40;62.85;100296.38;1657089;86;21418;-60
2022/05/25 01:52:57;;;;;;;16.02;6.15;;;;;;;11.34;63.02;100297.19;1657145;86;21054;-61
2022/05/25 01:55:30;;;;;;;17.70;6.87;;;;;;;11.31;63.27;100297.60;1657155;86;21010;-60
2022/05/25 01:58:09;;;;;;;14.23;6.70;;;;;;;11.21;63.49;100298.52;1657188;86;21005;-58
2022/05/25 02:00:44;;;;;;;16.52;7.72;;;;;;;11.13;63.73;100294.05;1657153;86;21025;-60
2022/05/25 02:06:32;;;;;;;11.80;6.40;;;;;;;11.17;63.73;100304.09;1657328;86;21037;-60
2022/05/25 02:09:30;;;;;;;12.82;6.53;;;;;;;11.14;63.53;100300.38;1657064;86;20993;-60
2022/05/25 02:12:45;;;;;;;12.68;6.37;;;;;;;11.07;63.67;100302.56;1657394;86;21037;-60
2022/05/25 02:15:55;;;;;;;17.57;6.72;;;;;;;11.07;63.86;100309.42;1657128;86;21025;-60
2022/05/25 02:18:42;;;;;;;24.60;8.58;;;;;;;11.11;63.86;100309.86;1657339;86;21002;-60
2022/05/25 02:21:43;;;;;;;;;;;;;;;11.10;63.88;100314.50;1659618;86;20993;-60
2022/05/25 02:24:29;;;;;;;19.17;9.05;;;;;;;11.06;63.85;100308.25;1657239;86;20204;-60
2022/05/25 02:27:24;;;;;;;17.17;7.45;;;;;;;11.05;64.11;100317.00;1657094;86;21458;-60
2022/05/25 02:30:03;;;;;;;17.00;7.60;;;;;;;11.03;64.35;100316.85;1654877;86;21013;-60
2022/05/25 02:32:42;;;;;;;14.87;7.53;;;;;;;11.02;64.32;100316.53;1657095;86;20966;-61
2022/05/25 02:35:11;;;;;;;16.73;7.45;;;;;;;11.01;64.18;100321.17;1657192;86;21005;-62
2022/05/25 02:37:39;;;;;;;14.03;7.17;;;;;;;11.06;64.18;100325.55;1657165;86;21104;-59
2022/05/25 02:40:08;;;;;;;16.65;7.55;;;;;;;11.11;64.13;100327.16;1657075;86;21053;-60
2022/05/25 02:42:40;;;;;;;16.15;7.47;;;;;;;11.17;64.04;100323.28;1656781;86;21450;-60
2022/05/25 02:45:11;;;;;;;13.43;7.00;;;;;;;11.21;63.99;100328.68;1657121;86;21021;-60
2022/05/25 02:47:41;;;;;;;22.67;8.63;;;;;;;11.22;64.06;100326.26;1657088;86;21026;-60
2022/05/25 02:50:10;;;;;;;21.15;8.63;;;;;;;11.26;64.01;100333.03;1657164;86;21025;-60
2022/05/25 02:52:39;;;;;;;15.23;7.37;;;;;;;11.29;63.75;100329.88;1657073;86;20994;-60
2022/05/25 02:55:08;;;;;;;14.60;7.35;;;;;;;11.31;63.45;100328.63;1657094;86;20997;-60
2022/05/25 02:57:36;;;;;;;15.53;7.72;;;;;;;11.33;63.28;100335.28;1657110;86;21046;-61
2022/05/25 03:00:07;;;;;;;16.73;7.78;;;;;;;11.35;63.07;100335.39;1657079;86;21049;-61
2022/05/25 03:02:36;;;;;;;15.90;7.78;;;;;;;11.34;62.99;100336.97;1657120;86;21434;-60
2022/05/25 03:05:06;;;;;;;22.37;8.53;;;;;;;11.28;63.08;100339.16;1657089;86;21430;-60
2022/05/25 03:07:36;;;;;;;18.17;8.00;;;;;;;11.25;63.36;100338.19;1605607;89;21166;-60
2022/05/25 03:10:05;;;;;;;17.62;7.87;;;;;;;11.25;63.51;100338.19;1635137;88;21025;-60
2022/05/25 03:12:35;;;;;;;24.00;10.15;;;;;;;11.26;63.71;100334.40;1635286;88;21015;-60
2022/05/25 03:15:05;;;;;;;21.37;9.98;;;;;;;11.26;63.81;100339.36;1613846;88;21427;-60
2022/05/25 03:17:33;;;;;;;21.55;10.15;;;;;;;11.29;63.79;100334.84;1635152;88;21076;-60
2022/05/25 03:20:03;;;;;;;25.72;11.63;;;;;;;11.31;63.71;100334.64;1635170;88;21671;-61
2022/05/25 03:22:34;;;;;;;22.45;11.08;;;;;;;11.35;63.71;100334.02;1635280;88;20987;-60
2022/05/25 03:25:02;;;;;;;19.52;9.48;;;;;;;11.40;63.76;100338.37;1645916;85;21023;-60
2022/05/25 03:27:31;;;;;;;18.65;9.85;;;;;;;11.42;63.85;100336.80;1688120;85;21052;-60
2022/05/25 03:29:59;;;;;;;19.02;9.83;;;;;;;11.42;63.98;100337.64;1688207;85;20988;-61
2022/05/25 03:32:29;;;;;;;23.70;11.05;;;;;;;11.45;63.81;100340.50;1688072;85;21443;-62
2022/05/25 03:34:59;;;;;;;27.65;11.38;;;;;;;11.50;63.53;100340.73;1688152;85;20984;-60
2022/05/25 03:37:28;;;;;;;24.47;11.35;;;;;;;11.55;63.24;100340.95;1688194;84;21035;-60
2022/05/25 03:39:56;;;;;;;24.92;11.40;;;;;;;11.62;63.28;100339.08;1688133;85;21020;-62
2022/05/25 03:42:25;;;;;;;22.35;11.30;;;;;;;11.67;63.50;100340.68;1688188;85;21040;-59
2022/05/25 03:44:54;;;;;;;22.22;11.28;;;;;;;11.72;63.70;100344.21;1688048;85;21008;-59
2022/05/25 03:47:23;;;;;;;23.50;11.68;;;;;;;11.74;63.72;100340.20;1688308;85;21003;-61
2022/05/25 03:49:52;;;;;;;25.60;11.95;;;;;;;11.77;63.69;100337.58;1688287;85;21003;-59
2022/05/25 03:52:22;;;;;;;23.05;10.58;;;;;;;11.81;63.56;100336.66;1688211;85;21051;-61
2022/05/25 03:54:51;;;;;;;26.55;11.40;;;;;;;11.85;63.20;100344.28;1688197;85;21444;-60
2022/05/25 03:57:19;;;;;;;27.22;11.38;;;;;;;11.91;62.86;100337.95;1688182;85;21004;-60
2022/05/25 03:59:49;;;;;;;30.60;11.57;;;;;;;11.99;62.53;100343.78;1688192;85;21036;-59
2022/05/25 04:02:18;;;;;;;24.18;10.63;;;;;;;12.10;62.34;100343.69;1688116;85;20999;-60
2022/05/25 04:05:07;;;;;;;22.65;10.48;;;;;;;12.17;62.23;100348.14;1688317;85;20968;-61
2022/05/25 04:07:20;;;;;;;18.70;9.85;;;;;;;12.22;62.17;100351.63;1685470;85;21012;-60
2022/05/25 04:09:49;;;;;;;21.95;10.08;;;;;;;12.27;62.05;100361.46;1688081;85;21028;-60
2022/05/25 04:12:22;;;;;;;22.07;9.55;;;;;;;12.33;61.89;100357.34;1688244;85;21011;-60
2022/05/25 04:14:50;;;;;;;25.92;10.18;;;;;;;12.44;61.68;100360.03;1688254;85;20960;-60
2022/05/25 04:17:19;;;;;;;21.02;9.88;;;;;;;12.53;61.48;100357.91;1688104;85;21452;-60
2022/05/25 04:19:50;;;;;;;21.73;9.63;;;;;;;12.59;61.24;100362.56;1688110;85;21032;-60
2022/05/25 04:22:20;;;;;;;24.05;8.90;;;;;;;12.65;60.90;100363.94;1666464;85;21007;-60
2022/05/25 04:24:49;;;;;;;18.60;8.88;;;;;;;12.73;60.49;100362.02;1688090;85;21012;-62
2022/05/25 04:27:18;;;;;;;21.37;9.10;;;;;;;12.82;60.01;100373.96;1688238;85;21026;-60
2022/05/25 04:29:47;;;;;;;22.80;8.25;;;;;;;12.91;59.83;100374.06;1688026;85;21059;-60
2022/05/25 04:32:17;;;;;;;22.00;9.60;;;;;;;13.01;59.61;100373.13;1688158;85;21268;-61
2022/05/25 04:34:46;;;;;;;16.07;8.35;;;;;;;13.11;59.01;100380.09;1688101;85;21448;-60
2022/05/25 04:40:02;;;;;;;26.95;8.10;;;;;;;13.32;58.06;100377.10;1698042;84;20988;-61
2022/05/25 04:42:31;;;;;;;12.90;6.72;;;;;;;13.44;57.53;100378.12;1697993;84;21031;-61
2022/05/25 04:45:00;;;;;;;13.25;6.72;;;;;;;13.55;56.89;100377.97;1697782;84;20983;-61
2022/05/25 04:47:31;;;;;;;10.80;5.05;;;;;;;13.68;56.54;100368.84;1697716;84;21031;-61
2022/05/25 04:50:00;;;;;;;11.05;5.17;;;;;;;13.85;54.93;100379.67;1697788;84;21051;-60
2022/05/25 04:52:31;;;;;;;11.80;4.40;;;;;;;14.09;54.55;100376.14;1697936;84;21047;-62
2022/05/25 04:55:00;;;;;;;8.90;3.95;;;;;;;14.35;53.29;100372.92;1697856;84;20987;-61
2022/05/25 04:57:30;;;;;;;7.50;3.55;;;;;;;14.67;51.27;100371.86;1697874;84;20991;-61
2022/05/25 05:00:01;;;;;;;5.83;2.87;;;;;;;15.09;49.93;100370.21;1697912;84;20995;-60
2022/05/25 05:02:30;;;;;;;6.10;2.45;;;;;;;15.55;47.33;100369.69;1698056;84;20991;-60
2022/05/25 05:05:00;;;;;;;5.45;2.33;;;;;;;16.13;44.54;100368.34;1697966;84;20971;-61
2022/05/25 05:07:32;;;;;;;8.78;2.40;;;;;;;16.65;42.44;100372.77;1697831;84;20987;-62
2022/05/25 05:10:01;;;;;;;3.22;2.10;;;;;;;17.17;40.04;100366.89;1697967;84;21000;-61
2022/05/25 05:12:31;;;;;;;6.72;2.60;;;;;;;17.66;38.29;100367.45;1697809;84;20991;-61
2022/05/25 05:15:00;;;;;;;6.12;2.30;;;;;;;18.08;36.83;100373.59;1697891;84;21011;-60
2022/05/25 05:17:29;;;;;;;4.42;2.05;;;;;;;18.42;36.42;100371.77;1697977;84;21047;-60
2022/05/25 05:20:06;;;;;;;3.70;1.82;;;;;;;18.80;35.74;100364.66;1696758;84;21031;-61
2022/05/25 05:22:36;;;;;;;5.10;2.50;;;;;;;19.21;34.33;100368.39;1698084;84;21381;-61
2022/05/25 05:25:06;;;;;;;10.13;2.80;;;;;;;19.57;33.88;100363.39;1697867;84;20991;-61
2022/05/25 05:27:34;;;;;;;4.12;2.27;;;;;;;19.91;32.86;100371.05;1697970;84;20983;-64
2022/05/25 05:30:05;;;;;;;5.45;2.40;;;;;;;20.20;32.37;100369.75;1698004;84;21427;-60
2022/05/25 05:32:35;;;;;;;5.78;2.55;;;;;;;20.50;31.29;100372.58;1669011;84;21482;-60
2022/05/25 05:35:05;;;;;;;4.83;2.55;;;;;;;20.74;30.75;100374.46;1697843;84;20984;-60
2022/05/25 05:37:40;;;;;;;3.52;2.15;;;;;;;20.98;30.12;100376.36;1696793;84;21023;-60
2022/05/25 05:40:10;;;;;;;7.92;2.90;;;;;;;21.17;29.18;100375.66;1695357;85;20980;-62
2022/05/25 05:42:40;;;;;;;6.65;2.45;;;;;;;21.33;29.53;100376.63;1695518;85;20992;-61
2022/05/25 05:45:22;;;;;;;5.20;2.10;;;;;;;21.56;29.37;100376.79;1695364;85;21015;-61
2022/05/25 05:47:59;;;;;;;3.22;1.98;;;;;;;21.79;29.22;100377.73;1695266;85;20988;-61
2022/05/25 05:50:28;;;;;;;5.95;2.42;;;;;;;22.06;28.31;100375.35;1695076;85;21032;-62
2022/05/25 05:52:58;;;;;;;5.00;2.40;;;;;;;22.28;27.62;100373.21;1695346;85;21011;-60
2022/05/25 05:55:26;;;;;;;3.87;2.10;;;;;;;22.51;27.61;100379.39;1695498;85;21009;-61
2022/05/25 05:57:55;;;;;;;7.22;2.60;;;;;;;22.70;26.83;100374.94;1695367;85;21511;-62
2022/05/25 06:00:23;;;;;;;4.85;2.35;;;;;;;22.89;26.35;100376.13;1695392;85;20992;-61
2022/05/25 06:02:52;;;;;;;4.45;2.30;;;;;;;23.05;26.34;100378.34;1695491;85;21435;-61
2022/05/25 06:05:21;;;;;;;4.17;2.37;;;;;;;23.21;25.54;100376.37;1695378;85;21040;-61
2022/05/25 06:07:49;;;;;;;6.47;2.42;;;;;;;23.38;25.81;100372.14;1695184;85;20987;-60
2022/05/25 06:10:19;;;;;;;3.15;2.17;;;;;;;23.54;24.94;100377.16;1695356;85;21016;-62
2022/05/25 06:12:48;;;;;;;5.62;2.40;;;;;;;23.69;24.81;100373.51;1695272;85;21034;-61
2022/05/25 06:20:50;;;;;;;3.83;1.90;;;;;;;24.12;24.23;100377.55;1695524;85;21027;-60
2022/05/25 06:23:18;;;;;;;10.58;7.25;;;;;;;24.31;24.11;100384.75;1695318;85;21606;-60
2022/05/25 06:25:47;;;;;;;3.80;2.90;;;;;;;24.49;23.49;100380.43;1695263;84;21469;-60
2022/05/25 06:28:15;;;;;;;5.20;2.47;;;;;;;24.54;23.92;100381.23;1695305;84;21020;-61
2022/05/25 06:30:45;;;;;;;5.60;2.45;;;;;;;24.74;23.39;100371.03;1695349;85;20988;-62
2022/05/25 06:33:14;;;;;;;5.50;2.40;;;;;;;24.88;23.24;100379.87;1695489;85;21499;-62
2022/05/25 06:35:43;;;;;;;5.10;2.20;;;;;;;25.03;23.07;100380.90;1695309;84;20988;-61
2022/05/25 06:38:12;;;;;;;4.33;2.30;;;;;;;25.21;23.19;100378.20;1691774;84;21082;-60
2022/05/25 06:40:42;;;;;;;7.53;2.08;;;;;;;25.33;22.15;100382.00;1688177;85;21051;-60
2022/05/25 06:43:12;;;;;;;5.12;2.10;;;;;;;25.28;22.74;100387.10;1688157;85;21073;-62
2022/05/25 06:45:42;;;;;;;3.85;2.10;;;;;;;25.25;22.64;100384.89;1688116;85;21373;-60
2022/05/25 06:48:12;;;;;;;3.33;1.90;;;;;;;25.40;22.43;100385.89;1688099;85;21084;-62
2022/05/25 06:50:41;;;;;;;5.25;1.98;;;;;;;25.54;21.86;100385.46;1688245;85;21495;-61
2022/05/25 06:53:11;;;;;;;3.67;1.90;;;;;;;25.40;21.69;100389.53;1688344;85;20991;-61
2022/05/25 06:55:39;;;;;;;5.08;1.92;;;;;;;25.34;22.54;100385.64;1688239;85;21012;-61
2022/05/25 06:58:08;;;;;;;6.05;2.30;;;;;;;25.46;22.43;100389.75;1688137;85;21031;-61
2022/05/25 07:00:37;;;;;;;2.87;1.80;;;;;;;25.66;21.70;100385.08;1688131;85;21012;-61
2022/05/25 07:03:06;;;;;;;3.75;2.10;;;;;;;25.82;21.60;100386.00;1688104;85;21431;-61
2022/05/25 07:05:37;;;;;;;3.85;2.00;;;;;;;26.06;21.46;100387.41;1688208;85;21475;-60
2022/05/25 07:08:06;;;;;;;9.48;1.70;;;;;;;26.29;21.21;100385.69;1688113;85;20992;-61
2022/05/25 07:10:34;;;;;;;3.02;1.52;;;;;;;26.46;21.23;100388.00;1688157;85;21012;-60
2022/05/25 07:13:03;;;;;;;2.50;1.70;;;;;;;26.51;20.49;100394.95;1688155;85;20992;-61
2022/05/25 07:15:31;;;;;;;6.60;2.02;;;;;;;26.43;20.76;100391.42;1688099;85;20987;-60
2022/05/25 07:18:02;;;;;;;5.53;2.10;;;;;;;26.29;20.73;100391.30;1688107;85;21412;-61
2022/05/25 07:20:31;;;;;;;4.70;1.92;;;;;;;26.23;21.43;100387.73;1688205;85;20992;-62
2022/05/25 07:23:00;;;;;;;3.85;1.72;;;;;;;26.29;21.68;100390.47;1688125;85;20988;-62
2022/05/25 07:25:29;;;;;;;3.00;2.08;;;;;;;26.22;21.42;100389.44;1688164;85;21024;-60
2022/05/25 07:27:57;;;;;;;3.80;2.15;;;;;;;26.06;21.51;100391.62;1688001;85;21070;-60
2022/05/25 07:30:28;;;;;;;2.80;1.98;;;;;;;25.90;21.73;100387.30;1688106;85;21007;-60
2022/05/25 07:32:57;;;;;;;7.35;2.22;;;;;;;25.75;21.90;100387.50;1688126;85;21028;-61
2022/05/25 07:35:25;;;;;;;7.25;2.45;;;;;;;25.65;22.00;100384.78;1688066;85;21412;-61
2022/05/25 07:37:54;;;;;;;4.40;2.20;;;;;;;25.64;22.45;100378.90;1690788;84;21027;-62
2022/05/25 07:40:29;;;;;;;8.13;2.55;;;;;;;25.55;22.36;100386.56;1700814;84;20987;-61
2022/05/25 07:43:01;;;;;;;3.15;1.77;;;;;;;25.40;22.05;100393.75;1701068;84;21023;-62
2022/05/25 07:45:32;;;;;;;5.15;2.00;;;;;;;25.16;22.34;100395.08;1639932;87;21027;-61
2022/05/25 07:48:01;;;;;;;2.65;1.77;;;;;;;24.95;21.92;100397.19;1640048;87;21003;-61
2022/05/25 07:50:31;;;;;;;2.75;1.95;;;;;;;24.68;22.28;100384.77;1639265;87;21023;-61
2022/05/25 07:53:00;;;;;;;3.87;1.50;;;;;;;24.69;22.82;100387.28;1639988;87;20987;-61
2022/05/25 07:55:28;;;;;;;23.87;3.83;;;;;;;24.94;22.77;100392.72;1647714;86;21017;-60
2022/05/25 07:57:57;;;;;;;3.62;1.95;;;;;;;25.23;22.44;100389.95;1655097;86;21097;-61
2022/05/25 08:00:26;;;;;;;4.35;1.60;;;;;;;25.49;22.21;100381.31;1577980;90;21123;-61
2022/05/25 08:05:44;;;;;;;8.80;2.50;;;;;;;25.79;21.67;100387.16;1589338;89;21035;-60
2022/05/25 08:08:16;;;;;;;6.40;2.10;;;;;;;25.80;21.51;100392.48;1607729;89;21027;-60
2022/05/25 08:10:47;;;;;;;2.77;1.75;;;;;;;25.93;21.33;100384.47;1654215;84;21039;-60
2022/05/25 08:13:17;;;;;;;2.58;2.00;;;;;;;26.13;21.46;100387.88;1669176;86;21400;-62
2022/05/25 08:15:45;;;;;;;3.27;1.77;;;;;;;26.47;20.64;100395.30;1671090;84;21022;-60
2022/05/25 08:18:16;;;;;;;3.33;1.90;;;;;;;26.54;20.95;100390.13;1672192;86;21025;-58
2022/05/25 08:20:45;;;;;;;6.92;2.70;;;;;;;26.56;21.26;100387.84;1672075;86;21006;-61
2022/05/25 08:23:15;;;;;;;3.40;1.90;;;;;;;26.50;21.09;100384.85;1672222;84;21057;-62
2022/05/25 08:25:45;;;;;;;5.22;2.10;;;;;;;26.56;21.63;100390.66;1647029;86;21461;-63
2022/05/25 08:28:13;;;;;;;4.17;2.10;;;;;;;26.69;21.16;100387.11;1672037;86;21006;-60
2022/05/25 08:30:43;;;;;;;3.65;1.80;;;;;;;26.75;20.87;100387.86;1672190;86;20990;-61
2022/05/25 08:33:14;;;;;;;13.90;2.55;;;;;;;26.74;21.04;100390.41;1664957;86;21145;-61
2022/05/25 08:35:45;;;;;;;3.08;1.70;;;;;;;26.80;20.98;100387.21;1669304;86;21055;-61
2022/05/25 08:38:14;;;;;;;3.72;1.90;;;;;;;26.82;20.96;100385.50;1667068;85;21479;-61
2022/05/25 08:40:43;;;;;;;4.12;1.98;;;;;;;26.82;20.86;100389.14;1659921;86;21417;-61
2022/05/25 08:43:25;;;;;;;6.08;2.10;;;;;;;26.71;20.89;100390.45;1659834;86;21019;-60
2022/05/25 08:45:58;;;;;;;5.12;2.60;;;;;;;26.57;21.01;100383.90;1659849;86;21033;-61
2022/05/25 08:48:28;;;;;;;3.47;2.00;;;;;;;26.49;21.17;100379.80;1659761;86;21051;-59
2022/05/25 08:51:04;;;;;;;3.17;1.67;;;;;;;26.46;21.08;100386.59;1656719;86;21087;-61
2022/05/25 08:53:37;;;;;;;2.83;1.90;;;;;;;26.42;21.09;100384.12;1655868;86;21083;-60
2022/05/25 08:56:23;;;;;;;4.20;1.98;;;;;;;26.42;21.00;100384.12;1635620;86;21055;-62
2022/05/25 08:59:12;;;;;;;3.98;2.40;;;;;;;26.38;21.36;100380.25;1656115;86;21026;-63
2022/05/25 09:02:01;;;;;;;5.85;2.67;;;;;;;26.37;21.33;100381.39;1645862;86;21003;-62
2022/05/25 09:04:55;;;;;;;4.90;3.52;;;;;;;26.39;21.43;100384.16;1645773;87;21010;-60
2022/05/25 09:07:36;;;;;;;4.47;2.17;;;;;;;26.31;21.41;100382.58;1674257;85;21014;-61
2022/05/25 09:10:06;;;;;;;5.47;3.40;;;;;;;26.25;21.37;100379.58;1645927;87;21000;-59
2022/05/25 09:12:49;;;;;;;3.52;2.25;;;;;;;26.09;21.37;100385.41;1645901;86;21043;-60
2022/05/25 09:15:32;;;;;;;3.35;1.62;;;;;;;25.97;21.52;100382.16;1608176;87;21035;-61
2022/05/25 09:18:09;;;;;;;1.85;1.40;;;;;;;25.81;21.10;100379.28;1646109;86;20971;-59
2022/05/25 09:20:45;;;;;;;;;;;;;;;25.51;21.58;100374.27;1648276;86;21629;-59
2022/05/25 09:23:15;;;;;;;2.30;1.57;;;;;;;25.34;21.77;100380.04;1609283;89;20236;-58
2022/05/25 09:25:44;;;;;;;4.85;2.25;;;;;;;25.23;21.84;100373.70;1594789;89;21012;-59
2022/05/25 09:28:22;;;;;;;4.05;2.33;;;;;;;25.21;22.27;100373.16;1618250;88;21568;-59
2022/05/25 09:30:53;;;;;;;4.03;2.30;;;;;;;25.24;22.31;100368.36;1617741;89;21013;-59
2022/05/25 09:33:41;;;;;;;5.20;2.33;;;;;;;25.18;22.08;100362.53;1594047;89;21012;-59
2022/05/25 09:36:38;;;;;;;5.17;1.82;;;;;;;25.12;22.28;100362.31;1587663;90;21101;-60
2022/05/25 09:39:23;;;;;;;2.75;1.67;;;;;;;25.07;22.48;100364.59;1581092;90;21079;-61
2022/05/25 09:41:59;;;;;;;3.45;2.30;;;;;;;24.95;22.28;100352.34;1575782;91;21035;-59
2022/05/25 09:44:28;;;;;;;5.60;2.25;;;;;;;24.84;22.52;100361.97;1575951;91;21068;-60
2022/05/25 09:47:04;;;;;;;5.70;2.20;;;;;;;24.80;22.95;100356.68;1563199;88;21067;-60
2022/05/25 09:49:44;;;;;;;2.85;1.80;;;;;;;24.78;22.54;100350.53;1634222;88;21044;-62
2022/05/25 09:52:23;;;;;;;6.40;2.02;;;;;;;24.65;22.71;100342.77;1633955;87;21037;-58
2022/05/25 09:54:58;;;;;;;3.67;1.80;;;;;;;24.69;22.96;100342.45;1632626;87;21434;-61
2022/05/25 09:57:42;;;;;;;5.78;1.85;;;;;;;24.73;22.58;100342.17;1650651;87;21006;-59
2022/05/25 10:00:39;;;;;;;2.25;1.77;;;;;;;24.67;22.80;100340.50;1663572;85;21015;-60
2022/05/25 10:03:37;;;;;;;4.97;1.87;;;;;;;24.67;22.93;100343.31;1691587;84;20992;-61
2022/05/25 10:06:35;;;;;;;3.37;2.00;;;;;;;24.68;23.16;100330.13;1691467;85;21015;-62
2022/05/25 10:09:12;;;;;;;3.83;2.10;;;;;;;24.77;22.97;100332.05;1691468;84;21452;-60
2022/05/25 10:11:51;;;;;;;2.25;1.80;;;;;;;24.80;22.98;100328.66;1691449;84;21007;-60
2022/05/25 10:14:35;;;;;;;3.17;1.80;;;;;;;24.85;22.83;100324.97;1691513;85;21388;-60
2022/05/25 10:17:14;;;;;;;3.77;2.80;;;;;;;24.82;23.36;100321.35;1691739;85;21038;-60
2022/05/25 10:19:49;;;;;;;5.12;1.95;;;;;;;24.75;23.15;100325.89;1691522;85;20996;-59
2022/05/25 10:22:38;;;;;;;3.60;1.90;;;;;;;24.78;23.42;100325.88;1691513;85;21022;-60
2022/05/25 10:25:28;;;;;;;2.72;2.05;;;;;;;24.77;23.20;100319.44;1690110;85;21074;-62
2022/05/25 10:27:57;;;;;;;3.90;1.95;;;;;;;24.72;23.66;100315.84;1691631;84;21070;-58
2022/05/25 10:36:47;;;;;;;2.77;1.80;;;;;;;24.84;22.44;100315.72;1691484;85;20996;-59
2022/05/25 10:39:33;;;;;;;2.08;1.52;;;;;;;24.83;22.20;100316.85;1689947;84;21075;-59
2022/05/25 10:42:23;;;;;;;6.72;4.50;;;;;;;24.82;22.46;100315.18;1688056;85;21039;-60
2022/05/25 10:45:22;;;;;;;3.05;2.02;;;;;;;24.90;22.51;100311.74;1687961;85;21043;-60
2022/05/25 10:48:29;;;;;;;2.87;1.70;;;;;;;24.99;21.95;100292.91;1687953;85;21030;-60
2022/05/25 10:51:04;;;;;;;4.45;1.80;;;;;;;25.03;22.35;100289.78;1688382;85;20984;-60
2022/05/25 10:57:00;;;;;;;3.90;2.10;;;;;;;24.99;22.11;100288.70;1688043;85;21036;-60
2022/05/25 11:00:16;;;;;;;4.55;1.60;;;;;;;25.10;22.46;100287.47;1710791;82;20983;-59
2022/05/25 11:03:20;;;;;;;4.12;1.70;;;;;;;25.09;22.03;100290.00;1651199;86;21046;-59
2022/05/25 11:06:14;;;;;;;2.40;1.77;;;;;;;25.06;22.31;100291.99;1642369;86;20970;-59
2022/05/25 11:09:06;;;;;;;5.58;1.70;;;;;;;25.06;21.88;100287.22;1667639;85;21452;-58
2022/05/25 11:12:23;;;;;;;5.37;1.80;;;;;;;25.09;22.10;100295.04;1667756;86;21033;-62
2022/05/25 11:15:26;;;;;;;2.72;1.85;;;;;;;25.08;22.25;100285.52;1624927;88;21046;-60
2022/05/25 11:18:13;;;;;;;5.10;2.10;;;;;;;25.07;22.22;100285.25;1624933;88;21545;-58
2022/05/25 11:21:16;;;;;;;2.72;2.05;;;;;;;25.09;21.94;100284.39;1624990;88;21026;-59
2022/05/25 11:24:06;;;;;;;2.85;2.00;;;;;;;25.02;22.08;100286.14;1624994;88;21020;-58
2022/05/25 11:26:49;;;;;;;6.45;3.20;;;;;;;25.02;22.03;100286.14;1607174;88;21010;-58
2022/05/25 11:29:59;;;;;;;7.65;3.35;;;;;;;25.07;21.76;100290.86;1629088;88;21045;-58
2022/05/25 11:32:41;;;;;;;3.20;2.12;;;;;;;25.14;21.63;100289.94;1629057;88;21038;-60
2022/05/25 11:35:21;;;;;;;3.17;2.08;;;;;;;25.17;21.21;100284.58;1629079;88;21042;-60
2022/05/25 11:38:26;;;;;;;3.20;2.20;;;;;;;25.15;21.20;100283.20;1555258;90;21083;-59
2022/05/25 11:41:30;;;;;;;6.42;1.90;;;;;;;25.17;21.23;100282.34;1635959;88;21049;-59
2022/05/25 11:44:36;;;;;;;4.22;2.30;;;;;;;25.11;21.11;100284.93;1636282;88;21062;-58
2022/05/25 11:47:10;;;;;;;4.97;2.10;;;;;;;25.04;21.37;100280.23;1629294;88;21053;-59
2022/05/25 11:50:00;;;;;;;3.47;1.65;;;;;;;24.98;21.34;100289.84;1627335;88;21053;-61
2022/05/25 11:52:52;;;;;;;4.78;1.90;;;;;;;24.93;21.42;100276.67;1629175;88;21010;-61
2022/05/25 11:55:47;;;;;;;3.47;1.60;;;;;;;24.84;21.30;100275.08;1664425;86;21451;-59
2022/05/25 11:59:01;;;;;;;4.83;1.95;;;;;;;24.78;21.64;100269.26;1675407;83;21026;-61
2022/05/25 12:01:44;;;;;;;3.95;1.60;;;;;;;24.74;21.83;100263.97;1671313;86;21425;-63
2022/05/25 12:04:33;;;;;;;3.72;2.08;;;;;;;24.75;21.83;100267.05;1641183;86;21031;-60
2022/05/25 12:07:17;;;;;;;2.55;2.05;;;;;;;24.74;22.05;100258.94;1692761;84;21439;-60
2022/05/25 12:10:19;;;;;;;2.40;1.80;;;;;;;24.73;21.92;100256.70;1697772;84;21152;-59
2022/05/25 12:12:59;;;;;;;2.17;1.62;;;;;;;24.75;21.99;100250.23;1666297;86;21040;-60
2022/05/25 12:15:38;;;;;;;3.40;1.70;;;;;;;24.82;21.86;100241.48;1697585;84;21011;-60
2022/05/25 12:18:44;;;;;;;2.87;2.00;;;;;;;24.87;21.98;100249.27;1697752;84;21023;-58
2022/05/25 12:21:23;;;;;;;5.30;1.80;;;;;;;24.85;22.00;100250.13;1696178;84;20999;-58
2022/05/25 12:24:00;;;;;;;3.15;1.90;;;;;;;24.77;21.62;100244.33;1668548;84;20992;-58
2022/05/25 12:26:31;;;;;;;4.60;2.67;;;;;;;24.73;21.52;100239.05;1689114;83;21050;-59
2022/05/25 12:29:17;;;;;;;4.70;2.00;;;;;;;24.70;21.96;100235.41;1691365;84;21023;-58